createdAt,value
2019-03-12T00:02:20.278Z,6.54
2019-03-12T00:04:49.754Z,6.61
2019-03-12T00:07:19.046Z,6.82
2019-03-12T00:09:48.886Z,6.70
2019-03-12T00:12:18.902Z,6.80
2019-03-12T00:14:48.638Z,6.68
2019-03-12T00:17:17.725Z,6.61
2019-03-12T00:19:48.328Z,6.80
2019-03-12T00:22:18.495Z,7.01
2019-03-12T00:24:48.472Z,6.44
2019-03-12T00:27:18.633Z,6.35
2019-03-12T00:29:47.491Z,6.35
2019-03-12T00:32:17.162Z,6.60
2019-03-12T00:34:47.019Z,6.43
2019-03-12T00:37:16.995Z,6.20
2019-03-12T00:39:46.731Z,6.32
2019-03-12T00:42:16.126Z,6.36
2019-03-12T00:44:45.837Z,5.70
2019-03-12T00:47:15.663Z,5.96
2019-03-12T00:49:44.691Z,5.88
2019-03-12T00:52:14.846Z,5.94
2019-03-12T00:54:44.634Z,5.60
2019-03-12T00:57:13.430Z,5.88
2019-03-12T00:59:42.874Z,5.94
2019-03-12T01:02:12.624Z,5.69
2019-03-12T01:04:41.473Z,5.89
2019-03-12T01:07:12.326Z,5.94
2019-03-12T01:09:42.316Z,5.94
2019-03-12T01:12:12.526Z,6.13
2019-03-12T01:14:42.455Z,5.98
2019-03-12T01:20:04.690Z,5.60
2019-03-12T01:22:34.339Z,5.57
2019-03-12T01:25:04.936Z,5.58
2019-03-12T01:27:34.594Z,5.56
2019-03-12T01:30:05.799Z,5.39
2019-03-12T01:32:35.562Z,5.39
2019-03-12T01:35:06.577Z,5.47
2019-03-12T01:37:36.780Z,5.22
2019-03-12T01:40:09.497Z,5.22
2019-03-12T01:42:40.310Z,5.12
2019-03-12T01:45:13.339Z,5.12
2019-03-12T01:47:43.587Z,5.29
2019-03-12T01:50:13.149Z,5.18
2019-03-12T01:52:44.148Z,5.31
2019-03-12T01:55:16.609Z,5.48
2019-03-12T01:57:46.478Z,5.58
2019-03-12T02:00:17.024Z,5.52
2019-03-12T02:02:48.789Z,5.52
2019-03-12T02:05:20.323Z,5.76
2019-03-12T02:07:50.973Z,5.61
2019-03-12T02:10:21.543Z,5.61
2019-03-12T02:12:51.845Z,5.72
2019-03-12T02:15:22.546Z,5.72
2019-03-12T02:17:52.907Z,5.65
2019-03-12T02:20:24.174Z,5.65
2019-03-12T02:22:54.178Z,5.27
2019-03-12T02:25:24.147Z,5.49
2019-03-12T02:27:54.514Z,5.28
2019-03-12T02:30:24.426Z,5.33
2019-03-12T02:32:54.355Z,5.33
2019-03-12T02:35:24.906Z,5.53
2019-03-12T02:37:54.659Z,5.53
2019-03-12T02:40:24.537Z,5.63
2019-03-12T02:42:53.843Z,5.23
2019-03-12T02:45:25.134Z,5.53
2019-03-12T02:47:55.738Z,5.20
2019-03-12T02:50:26.107Z,5.19
2019-03-12T02:52:56.349Z,5.49
2019-03-12T02:55:26.564Z,5.24
2019-03-12T02:57:55.901Z,5.29
2019-03-12T03:00:25.961Z,5.59
2019-03-12T03:02:55.884Z,5.33
2019-03-12T03:05:25.750Z,5.12
2019-03-12T03:08:01.638Z,5.29
2019-03-12T03:10:31.310Z,4.96
2019-03-12T03:13:01.585Z,5.32
2019-03-12T03:15:42.550Z,4.71
2019-03-12T03:18:12.685Z,4.61
2019-03-12T03:20:42.860Z,4.61
2019-03-12T03:23:14.119Z,4.78
2019-03-12T03:25:44.013Z,4.62
2019-03-12T03:28:15.968Z,4.67
2019-03-12T03:30:45.901Z,4.51
2019-03-12T03:33:15.871Z,4.67
2019-03-12T03:35:45.831Z,4.36
2019-03-12T03:38:15.576Z,4.21
2019-03-12T03:40:44.556Z,4.34
2019-03-12T03:43:15.319Z,4.28
2019-03-12T03:45:45.116Z,4.30
2019-03-12T03:48:14.938Z,4.54
2019-03-12T03:50:45.080Z,4.55
2019-03-12T03:53:15.069Z,4.32
2019-03-12T03:55:45.528Z,4.66
2019-03-12T03:58:14.878Z,4.66
2019-03-12T04:00:44.647Z,4.93
2019-03-12T04:03:14.306Z,4.63
2019-03-12T04:05:44.756Z,4.60
2019-03-12T04:08:14.682Z,4.69
2019-03-12T04:10:44.491Z,4.52
2019-03-12T04:13:14.485Z,4.49
2019-03-12T04:15:44.319Z,4.49
2019-03-12T04:18:14.169Z,3.89
2019-03-12T04:20:44.058Z,4.26
2019-03-12T04:23:16.011Z,4.63
2019-03-12T04:25:44.656Z,4.00
2019-03-12T04:28:13.621Z,3.76
2019-03-12T04:30:42.588Z,3.67
2019-03-12T04:34:27.314Z,3.40
2019-03-12T04:36:57.135Z,3.55
2019-03-12T04:39:27.002Z,3.72
2019-03-12T04:41:56.565Z,3.49
2019-03-12T04:44:26.017Z,3.38
2019-03-12T04:46:56.146Z,3.38
2019-03-12T04:49:26.303Z,3.06
2019-03-12T04:51:56.137Z,2.92
2019-03-12T04:54:25.801Z,2.68
2019-03-12T04:56:55.544Z,2.92
2019-03-12T04:59:24.787Z,3.07
2019-03-12T05:01:54.873Z,3.18
2019-03-12T05:04:24.631Z,2.83
2019-03-12T05:06:55.702Z,2.68
2019-03-12T05:09:26.808Z,2.48
2019-03-12T05:11:57.592Z,2.39
2019-03-12T05:14:34.699Z,2.25
2019-03-12T05:17:35.102Z,2.00
2019-03-12T05:20:10.978Z,2.20
2019-03-12T05:22:42.531Z,2.30
2019-03-12T05:25:14.040Z,2.16
2019-03-12T05:27:47.388Z,2.12
2019-03-12T05:30:20.520Z,1.94
2019-03-12T05:32:51.024Z,2.07
2019-03-12T05:35:22.065Z,2.40
2019-03-12T05:37:53.152Z,2.50
2019-03-12T05:40:24.877Z,2.50
2019-03-12T05:42:55.046Z,2.49
2019-03-12T05:45:26.318Z,2.45
2019-03-12T05:47:58.813Z,2.10
2019-03-12T05:50:30.862Z,1.89
2019-03-12T05:53:15.591Z,1.89
2019-03-12T05:55:47.475Z,2.51
2019-03-12T05:58:19.846Z,2.84
2019-03-12T06:00:51.718Z,2.56
2019-03-12T06:03:22.327Z,3.04
2019-03-12T06:05:53.534Z,2.64
2019-03-12T06:08:24.116Z,2.64
2019-03-12T06:10:55.320Z,2.61
2019-03-12T06:13:27.531Z,2.52
2019-03-12T06:16:00.162Z,2.52
2019-03-12T06:18:31.051Z,2.74
2019-03-12T06:21:02.454Z,2.72
2019-03-12T06:23:33.340Z,3.03
2019-03-12T06:26:06.344Z,3.13
2019-03-12T06:28:38.449Z,3.13
2019-03-12T06:31:27.903Z,3.24
2019-03-12T06:34:05.340Z,3.24
2019-03-12T06:36:49.643Z,3.37
2019-03-12T06:39:44.612Z,3.80
2019-03-12T06:42:36.785Z,4.18
2019-03-12T06:45:21.402Z,4.66
2019-03-12T06:48:13.980Z,5.09
2019-03-12T06:51:01.895Z,5.11
2019-03-12T06:53:50.043Z,5.00
2019-03-12T06:56:48.858Z,5.28
2019-03-12T06:59:41.412Z,5.24
2019-03-12T07:02:40.508Z,5.33
2019-03-12T07:05:44.823Z,5.22
2019-03-12T07:08:32.788Z,4.88
2019-03-12T07:11:22.544Z,4.94
2019-03-12T07:14:04.218Z,4.97
2019-03-12T07:17:10.631Z,4.82
2019-03-12T07:20:00.552Z,4.82
2019-03-12T07:22:46.498Z,5.16
2019-03-12T07:25:35.089Z,4.90
2019-03-12T07:28:13.541Z,5.54
2019-03-12T07:31:01.665Z,6.17
2019-03-12T07:33:51.051Z,6.17
2019-03-12T07:36:40.425Z,5.59
2019-03-12T07:39:28.594Z,6.29
2019-03-12T07:42:20.681Z,6.64
2019-03-12T07:45:08.458Z,6.37
2019-03-12T07:47:55.059Z,6.59
2019-03-12T07:50:45.862Z,6.48
2019-03-12T07:53:35.498Z,7.07
2019-03-12T07:56:13.939Z,7.78
2019-03-12T07:59:18.556Z,10.81
2019-03-12T08:02:07.372Z,17.61
2019-03-12T08:05:01.088Z,17.61
2019-03-12T08:07:50.512Z,21.07
2019-03-12T08:10:34.425Z,23.47
2019-03-12T08:13:23.897Z,20.82
2019-03-12T08:16:23.496Z,20.82
2019-03-12T08:19:02.043Z,15.47
2019-03-12T08:21:59.071Z,15.47
2019-03-12T08:24:36.537Z,15.58
2019-03-12T08:27:40.261Z,16.14
2019-03-12T08:30:28.724Z,17.74
2019-03-12T08:33:18.109Z,19.38
2019-03-12T08:35:54.008Z,20.58
2019-03-12T08:38:30.452Z,21.26
2019-03-12T08:41:15.141Z,21.63
2019-03-12T08:44:00.330Z,21.63
2019-03-12T08:46:49.509Z,23.14
2019-03-12T08:49:37.923Z,24.98
2019-03-12T08:52:25.098Z,25.42
2019-03-12T08:55:20.945Z,24.61
2019-03-12T08:58:13.990Z,22.53
2019-03-12T09:01:02.127Z,23.62
2019-03-12T09:04:00.710Z,22.39
2019-03-12T09:06:41.083Z,21.47
2019-03-12T09:09:39.868Z,22.85
2019-03-12T09:12:38.551Z,22.14
2019-03-12T09:15:27.743Z,21.51
2019-03-12T09:18:35.705Z,21.51
2019-03-12T09:21:43.516Z,21.16
2019-03-12T09:24:35.040Z,21.15
2019-03-12T09:27:38.134Z,21.98
2019-03-12T09:30:39.848Z,20.89
2019-03-12T09:33:13.656Z,21.93
2019-03-12T09:36:21.682Z,23.08
2019-03-12T09:39:05.488Z,21.90
2019-03-12T09:41:59.824Z,22.35
2019-03-12T09:44:46.519Z,21.38
2019-03-12T09:47:38.631Z,21.90
2019-03-12T09:50:28.778Z,21.90
2019-03-12T09:53:14.664Z,22.19
2019-03-12T09:56:10.615Z,22.84
2019-03-12T09:58:57.950Z,22.43
2019-03-12T10:02:02.035Z,21.15
2019-03-12T10:05:09.813Z,22.05
2019-03-12T10:08:08.778Z,23.14
2019-03-12T10:10:53.757Z,23.22
2019-03-12T10:13:41.840Z,23.26
2019-03-12T10:16:43.811Z,22.98
2019-03-12T10:19:31.984Z,23.15
2019-03-12T10:22:25.779Z,21.67
2019-03-12T10:25:28.545Z,21.68
2019-03-12T10:28:13.950Z,25.17
2019-03-12T10:30:53.545Z,25.17
2019-03-12T10:33:49.310Z,26.39
2019-03-12T10:36:38.537Z,26.39
2019-03-12T10:40:15.712Z,26.44
2019-03-12T10:43:03.646Z,27.35
2019-03-12T10:45:52.520Z,26.97
2019-03-12T10:48:22.448Z,24.23
2019-03-12T10:50:53.325Z,25.15
2019-03-12T10:53:23.603Z,25.15
2019-03-12T10:55:53.010Z,23.13
2019-03-12T10:58:23.351Z,23.13
2019-03-12T11:00:53.092Z,23.75
2019-03-12T11:03:23.445Z,24.63
2019-03-12T11:05:53.518Z,22.97
2019-03-12T11:08:22.884Z,22.54
2019-03-12T11:10:53.171Z,22.54
2019-03-12T11:13:23.156Z,23.18
2019-03-12T11:15:54.657Z,23.15
2019-03-12T11:18:25.038Z,23.54
2019-03-12T11:20:55.182Z,24.33
2019-03-12T11:23:25.505Z,24.84
2019-03-12T11:25:55.919Z,24.11
2019-03-12T11:28:26.891Z,24.11
2019-03-12T11:30:57.108Z,23.33
2019-03-12T11:33:26.821Z,23.45
2019-03-12T11:35:56.695Z,22.96
2019-03-12T11:38:27.318Z,21.58
2019-03-12T11:40:57.352Z,21.88
2019-03-12T11:43:27.387Z,21.55
2019-03-12T11:45:57.884Z,22.23
2019-03-12T11:48:27.607Z,21.82
2019-03-12T11:50:56.581Z,21.31
2019-03-12T11:53:26.778Z,21.82
2019-03-12T11:55:56.743Z,21.88
2019-03-12T11:58:27.071Z,20.45
2019-03-12T12:01:02.571Z,20.38
2019-03-12T12:03:33.155Z,19.49
2019-03-12T12:06:04.395Z,19.66
2019-03-12T12:08:34.848Z,20.13
2019-03-12T12:11:05.137Z,19.76
2019-03-12T12:13:37.850Z,21.02
2019-03-12T12:16:07.852Z,21.63
2019-03-12T12:18:38.221Z,19.88
2019-03-12T12:21:08.035Z,19.16
2019-03-12T12:23:37.511Z,20.20
2019-03-12T12:26:07.484Z,19.11
2019-03-12T12:28:37.668Z,19.86
2019-03-12T12:31:08.951Z,19.86
2019-03-12T12:33:39.515Z,19.02
2019-03-12T12:36:09.798Z,19.72
2019-03-12T12:38:39.825Z,19.72
2019-03-12T12:41:09.944Z,20.01
2019-03-12T12:43:39.572Z,19.58
2019-03-12T12:46:09.439Z,17.86
2019-03-12T12:48:41.141Z,18.80
2019-03-12T12:51:11.994Z,18.82
2019-03-12T12:53:42.873Z,20.06
2019-03-12T12:56:13.428Z,20.76
2019-03-12T12:58:43.167Z,19.92
2019-03-12T13:01:18.147Z,19.92
2019-03-12T13:03:48.620Z,20.94
2019-03-12T13:06:19.775Z,20.94
2019-03-12T13:08:50.623Z,20.36
2019-03-12T13:11:21.314Z,20.00
2019-03-12T13:13:51.448Z,18.40
2019-03-12T13:16:25.411Z,17.89
2019-03-12T13:18:53.906Z,18.38
2019-03-12T13:21:24.312Z,18.30
2019-03-12T13:23:55.321Z,19.72
2019-03-12T13:26:25.598Z,19.70
2019-03-12T13:28:56.887Z,19.12
2019-03-12T13:31:26.829Z,18.51
2019-03-12T13:33:59.666Z,17.72
2019-03-12T13:36:30.358Z,17.42
2019-03-12T13:39:00.599Z,16.47
2019-03-12T13:41:29.667Z,16.47
2019-03-12T13:43:59.550Z,16.33
2019-03-12T13:46:29.013Z,15.95
2019-03-12T13:48:58.964Z,15.92
2019-03-12T13:51:29.501Z,15.28
2019-03-12T13:53:59.501Z,14.95
2019-03-12T13:56:28.303Z,14.95
2019-03-12T13:58:58.430Z,14.98
2019-03-12T14:01:28.736Z,14.98
2019-03-12T14:04:10.070Z,14.75
2019-03-12T14:06:30.909Z,15.14
2019-03-12T14:09:00.983Z,15.21
2019-03-12T14:11:32.902Z,15.45
2019-03-12T14:14:02.644Z,15.89
2019-03-12T14:16:32.945Z,15.82
2019-03-12T14:19:03.503Z,15.47
2019-03-12T14:21:42.707Z,15.82
2019-03-12T14:24:14.057Z,15.82
2019-03-12T14:26:45.529Z,15.83
2019-03-12T14:29:16.061Z,15.38
2019-03-12T14:31:47.700Z,15.28
2019-03-12T14:34:20.533Z,15.40
2019-03-12T14:36:51.690Z,14.99
2019-03-12T14:39:23.576Z,14.53
2019-03-12T14:41:54.319Z,14.99
2019-03-12T14:44:25.410Z,15.40
2019-03-12T14:46:56.496Z,15.15
2019-03-12T14:49:27.439Z,15.34
2019-03-12T14:52:28.465Z,15.11
2019-03-12T14:54:58.666Z,14.63
2019-03-12T14:57:28.736Z,14.63
2019-03-12T15:00:00.484Z,14.79
2019-03-12T15:02:31.617Z,14.81
2019-03-12T15:05:01.949Z,14.62
2019-03-12T15:07:32.515Z,14.44
2019-03-12T15:12:03.526Z,14.53
2019-03-12T15:14:33.478Z,14.30
2019-03-12T15:17:02.557Z,14.37
2019-03-12T15:19:31.709Z,13.96
2019-03-12T15:22:02.547Z,14.42
2019-03-12T15:24:36.024Z,14.20
2019-03-12T15:27:05.919Z,14.06
2019-03-12T15:29:40.000Z,14.44
2019-03-12T15:32:13.305Z,13.95
2019-03-12T15:34:43.725Z,13.95
2019-03-12T15:37:14.876Z,13.66
2019-03-12T15:39:45.352Z,13.90
2019-03-12T15:42:16.172Z,13.92
2019-03-12T15:44:46.352Z,14.01
2019-03-12T15:47:16.685Z,13.65
2019-03-12T15:49:47.056Z,13.65
2019-03-12T15:52:17.676Z,13.74
2019-03-12T15:54:47.591Z,13.72
2019-03-12T15:57:17.268Z,13.67
2019-03-12T15:59:47.463Z,13.70
2019-03-12T16:02:17.500Z,13.80
2019-03-12T16:04:47.852Z,13.80
2019-03-12T16:07:17.848Z,13.45
2019-03-12T16:09:47.723Z,13.26
2019-03-12T16:12:19.044Z,13.38
2019-03-12T16:14:49.502Z,13.46
2019-03-12T16:17:19.611Z,13.99
2019-03-12T16:19:49.111Z,13.99
2019-03-12T16:22:19.317Z,13.59
2019-03-12T16:24:49.516Z,13.33
2019-03-12T16:27:20.268Z,13.13
2019-03-12T16:29:50.537Z,13.22
2019-03-12T16:32:19.711Z,13.03
2019-03-12T16:34:51.940Z,12.88
2019-03-12T16:37:28.347Z,13.11
2019-03-12T16:39:58.640Z,12.49
2019-03-12T16:42:34.948Z,12.87
2019-03-12T16:45:01.016Z,12.36
2019-03-12T16:47:32.316Z,12.16
2019-03-12T16:50:02.599Z,12.46
2019-03-12T16:52:33.579Z,12.40
2019-03-12T16:55:03.491Z,12.37
2019-03-12T16:57:33.681Z,12.11
2019-03-12T17:00:08.207Z,12.11
2019-03-12T17:02:37.515Z,11.90
2019-03-12T17:05:07.040Z,11.77
2019-03-12T17:07:37.203Z,11.67
2019-03-12T17:10:09.802Z,11.56
2019-03-12T17:12:40.640Z,11.59
2019-03-12T17:15:11.928Z,11.53
2019-03-12T17:17:42.659Z,11.63
2019-03-12T17:20:13.317Z,11.54
2019-03-12T17:22:43.566Z,11.66
2019-03-12T17:25:14.558Z,11.50
2019-03-12T17:27:43.966Z,11.20
2019-03-12T17:30:17.740Z,11.11
2019-03-12T17:32:47.839Z,11.10
2019-03-12T17:35:23.357Z,10.91
2019-03-12T17:37:53.521Z,10.77
2019-03-12T17:40:25.532Z,10.66
2019-03-12T17:42:54.924Z,10.71
2019-03-12T17:45:25.013Z,10.69
2019-03-12T17:47:55.765Z,10.65
2019-03-12T17:50:25.878Z,10.45
2019-03-12T17:52:56.315Z,10.45
2019-03-12T17:55:27.165Z,10.81
2019-03-12T17:57:59.627Z,10.62
2019-03-12T18:00:30.981Z,10.55
2019-03-12T18:03:01.479Z,10.62
2019-03-12T18:05:31.326Z,10.51
2019-03-12T18:08:04.822Z,10.63
2019-03-12T18:10:34.600Z,10.63
2019-03-12T18:13:03.929Z,10.66
2019-03-12T18:15:33.866Z,10.48
2019-03-12T18:18:04.133Z,10.54
2019-03-12T18:20:34.542Z,10.71
2019-03-12T18:23:04.611Z,10.53
2019-03-12T18:25:33.880Z,10.53
2019-03-12T18:28:04.035Z,10.65
2019-03-12T18:30:34.362Z,10.71
2019-03-12T18:33:04.983Z,10.60
2019-03-12T18:35:35.632Z,10.66
2019-03-12T18:38:05.076Z,10.78
2019-03-12T18:40:35.165Z,10.44
2019-03-12T18:43:05.161Z,10.47
2019-03-12T18:45:35.535Z,10.39
2019-03-12T18:48:05.044Z,10.20
2019-03-12T18:50:35.189Z,10.29
2019-03-12T18:53:05.372Z,10.23
2019-03-12T18:56:09.548Z,10.19
2019-03-12T18:58:39.755Z,10.07
2019-03-12T19:01:15.381Z,10.28
2019-03-12T19:03:45.971Z,10.18
2019-03-12T19:06:15.880Z,10.05
2019-03-12T19:08:48.169Z,10.16
2019-03-12T19:11:19.072Z,10.16
2019-03-12T19:13:49.622Z,10.14
2019-03-12T19:16:18.889Z,10.36
2019-03-12T19:18:48.758Z,10.38
2019-03-12T19:21:18.931Z,10.51
2019-03-12T19:23:54.365Z,10.33
2019-03-12T19:26:24.862Z,10.28
2019-03-12T19:28:54.684Z,10.28
2019-03-12T19:31:41.962Z,10.14
2019-03-12T19:34:16.527Z,10.30
2019-03-12T19:36:46.557Z,10.15
2019-03-12T19:39:18.575Z,10.15
2019-03-12T19:41:47.776Z,10.31
2019-03-12T19:44:18.496Z,10.53
2019-03-12T19:46:49.233Z,10.47
2019-03-12T19:49:19.400Z,10.47
2019-03-12T19:51:51.543Z,10.16
2019-03-12T19:54:21.289Z,10.25
2019-03-12T19:56:51.713Z,10.55
2019-03-12T19:59:22.169Z,10.52
2019-03-12T20:01:59.401Z,10.33
2019-03-12T20:04:29.655Z,10.53
2019-03-12T20:07:00.018Z,10.53
2019-03-12T20:10:54.803Z,10.51
2019-03-12T20:14:37.940Z,10.44
2019-03-12T20:19:01.325Z,10.39
2019-03-12T20:22:41.626Z,10.55
2019-03-12T20:26:34.602Z,10.63
2019-03-12T20:30:03.519Z,11.08
2019-03-12T20:34:28.589Z,10.79
2019-03-12T20:38:03.072Z,10.79
2019-03-12T20:42:01.339Z,10.88
2019-03-12T20:45:53.506Z,10.69
2019-03-12T20:49:34.333Z,10.46
2019-03-12T20:53:22.487Z,10.46
2019-03-12T20:57:35.879Z,9.98
2019-03-12T21:01:39.091Z,9.98
2019-03-12T21:05:40.373Z,10.21
2019-03-12T21:09:40.747Z,9.84
2019-03-12T21:13:40.555Z,9.84
2019-03-12T21:17:28.514Z,10.00
2019-03-12T21:21:28.068Z,10.03
2019-03-12T21:24:53.549Z,10.03
2019-03-12T21:28:29.890Z,9.99
2019-03-12T21:30:59.561Z,9.55
2019-03-12T21:33:30.337Z,9.26
2019-03-12T21:36:02.566Z,9.26
2019-03-12T21:38:34.097Z,9.45
2019-03-12T21:41:05.049Z,9.30
2019-03-12T21:43:35.517Z,9.29
2019-03-12T21:46:07.963Z,9.07
2019-03-12T21:48:39.616Z,9.07
2019-03-12T21:51:10.781Z,9.15
2019-03-12T21:53:41.804Z,9.08
2019-03-12T21:56:12.840Z,9.29
2019-03-12T21:58:43.601Z,9.33
2019-03-12T22:01:17.691Z,9.49
2019-03-12T22:03:48.084Z,9.26
2019-03-12T22:06:20.582Z,9.14
2019-03-12T22:08:49.873Z,9.05
2019-03-12T22:11:20.088Z,9.03
2019-03-12T22:13:50.325Z,8.90
2019-03-12T22:16:20.476Z,8.86
2019-03-12T22:18:50.530Z,8.47
2019-03-12T22:21:25.678Z,8.47
2019-03-12T22:23:58.034Z,8.33
2019-03-12T22:26:28.620Z,8.16
2019-03-12T22:28:57.719Z,8.42
2019-03-12T22:31:28.321Z,8.34
2019-03-12T22:33:58.739Z,8.44
2019-03-12T22:36:28.668Z,8.44
2019-03-12T22:38:59.346Z,8.67
2019-03-12T22:41:29.550Z,8.97
2019-03-12T22:43:58.673Z,8.97
2019-03-12T22:46:28.476Z,8.94
2019-03-12T22:48:58.594Z,9.44
2019-03-12T22:51:27.874Z,9.44
2019-03-12T22:53:57.684Z,9.55
2019-03-12T22:56:27.809Z,9.40
2019-03-12T22:58:58.171Z,9.54
2019-03-12T23:01:47.324Z,9.58
2019-03-12T23:04:36.121Z,9.78
2019-03-12T23:07:24.825Z,9.80
2019-03-12T23:09:55.649Z,9.79
2019-03-12T23:12:27.803Z,9.75
2019-03-12T23:14:58.863Z,9.75
2019-03-12T23:17:30.481Z,9.72
2019-03-12T23:20:00.666Z,9.71
2019-03-12T23:22:31.149Z,9.71
2019-03-12T23:25:02.144Z,9.77
2019-03-12T23:27:34.325Z,9.73
2019-03-12T23:30:06.640Z,9.81
2019-03-12T23:32:38.497Z,9.80
2019-03-12T23:35:08.879Z,9.65
2019-03-12T23:37:38.891Z,9.65
2019-03-12T23:40:09.678Z,9.73
2019-03-12T23:42:39.582Z,9.75
2019-03-12T23:45:08.852Z,10.13
2019-03-12T23:47:38.814Z,9.99
2019-03-12T23:50:09.622Z,10.33
2019-03-12T23:52:39.522Z,10.63
2019-03-12T23:55:09.684Z,11.08
2019-03-12T23:57:39.353Z,11.08
